FNLU/LAD METAR and TAF weather

Enter ICAO airport designator
Station Type Date Time Source
FNLU METAR 2020/01/20 16:00 UTC NOAA

FNLU 201600Z 27008KT 9999 FEW020 30/23 Q1007 NOSIG


Station Type Date Time Source
FNLU Decoded METAR 2020/01/20 16:00 UTC NOAA

Luanda, Angola (FNLU) 08-51S 013-14E 70M
Jan 20, 2020 - 11:00 AM EST / 2020.01.20 1600 UTC
Wind: from the W (270 degrees) at 9 MPH (8 KT):0
Visibility: greater than 7 mile(s):0
Sky conditions: mostly clear
Temperature: 86 F (30 C)
Heat index: 93.4 F (34.1 C):1
Dew Point: 73 F (23 C)
Relative Humidity: 66%
Pressure (altimeter): 29.74 in. Hg (1007 hPa)
ob: FNLU 201600Z 27008KT 9999 FEW020 30/23 Q1007 NOSIG
cycle: 16

Station Type Date Time Source
FNLU TAF 2020/01/20 18:11 UTC NOAA

TAF FNLU 201700Z 2018/2124 23010KT 9000 FEW020
TEMPO 2019/2023 7000 SCT018
BECMG 2104/2106 13004KT

Example: see airport list